Αρχική σελίδα
METAR-TAF:

METAR-TAF

Αεροδρόμια :

Colonel James Jabara Airport

Ουιτσίτα, Κάνσας, Ηνωμένες Πολιτείες Αμερικής

γεωγραφικό πλάτος: 37-44-59N, γεωγραφικό μήκος: 097-13-08W, υψόμετρο: 432 μ

Παρών καιρός

Η αναφορά έγινε 1 ώρα και 1 λεπτά πριν, στις 12:54 UTC
Άνεμος 3 kt από Β
Θερμοκρασία -2°C
Υγρασία 63%
Πίεση 1023 hPa
Ορατότητα: 16.1 χλμ
Καθαρός ουρανός

METAR: KAAO 161254Z AUTO 01003KT 10SM CLR M02/M08 A3022 RMK AO2 SLP246 T10171083

Χρόνος: 07:55 (13:55 UTC)


TAF: λείπει

Μετεωρολογικές αναφορές και προγνώσεις για περισσότερα από 4000 αεροδρόμια (δελτία METAR και TAF).

Οι διαθέσιμοι σταθμοί απεικονίζονται στο χάρτη με κίτρινες και κόκκινες κουκκίδες.

Μετακινήστε το ποντίκι πάνω από τις κουκκίδες για να δείτε το όνομα του σταθμού.

Στη συνέχεια, κάντε κλικ για να δείτε τις μετεωρολογικές αναφορές και τις προγνώσεις καιρού.

Για να αλλάξετε το χάρτη: κάντε κλικ στα πράσινα κουμπιά με τον μαύρο σταυρό για να ζουμάρετε, στο πράσινο κουμπί με την παύλα για να αφαιρέσετε το ζουμ ή στα πράσινα βέλη για να αντιπαραβάλλετε χάρτες.


METAR-TAF: